Time;durP1;ratioP1;P1;durP2;ratioP2;P2;SDS_P1;SDS_P2;PMS_P1;PMS_P2;Temp;Humidity;BMP_temperature;BMP_pressure;BME280_temperature;BME280_humidity;BME280_pressure;Samples;Min_cycle;Max_cycle;Signal;HPM_P1;HPM_P2
2023/06/16 00:01:39;;;;;;;5.95;4.13;;;12.70;85.40;;;;;;4729520;29;20066;-73
2023/06/16 00:04:08;;;;;;;7.25;4.03;;;12.60;85.90;;;;;;4734334;29;20247;-72
2023/06/16 00:06:36;;;;;;;10.35;4.63;;;12.50;86.10;;;;;;4732299;29;20158;-68
2023/06/16 00:09:02;;;;;;;5.65;4.13;;;12.50;86.60;;;;;;4732097;29;20059;-72
2023/06/16 00:11:42;;;;;;;6.43;4.32;;;12.50;86.80;;;;;;4721327;29;20059;-72
2023/06/16 00:14:11;;;;;;;7.68;4.28;;;12.50;86.90;;;;;;4734301;30;20106;-72
2023/06/16 00:16:39;;;;;;;9.50;4.25;;;12.40;87.10;;;;;;4709089;30;20058;-72
2023/06/16 00:19:10;;;;;;;6.63;4.07;;;12.40;87.40;;;;;;4715104;30;20134;-72
2023/06/16 00:21:59;;;;;;;8.73;4.65;;;12.30;87.70;;;;;;4700069;30;20875;-71
2023/06/16 00:24:26;;;;;;;8.38;4.13;;;12.30;88.30;;;;;;4697904;30;20059;-68
2023/06/16 00:27:05;;;;;;;5.32;4.15;;;12.20;88.50;;;;;;4715797;30;20143;-72
2023/06/16 00:29:32;;;;;;;7.72;4.82;;;12.10;89.00;;;;;;4702107;30;20743;-68
2023/06/16 00:31:58;;;;;;;10.45;4.63;;;12.10;89.20;;;;;;4714368;30;20052;-73
2023/06/16 00:34:27;;;;;;;5.97;3.97;;;11.10;89.00;;;;;;4700062;30;20060;-71
2023/06/16 00:36:54;;;;;;;6.78;4.10;;;12.00;89.80;;;;;;4712423;30;20059;-70
2023/06/16 00:39:24;;;;;;;6.60;5.53;;;12.00;90.00;;;;;;4697002;30;20125;-72
2023/06/16 00:41:53;;;;;;;7.13;5.55;;;11.90;90.10;;;;;;4698099;30;20150;-72
2023/06/16 00:44:23;;;;;;;8.27;4.53;;;11.90;90.30;;;;;;4706080;30;20047;-71
2023/06/16 00:46:51;;;;;;;7.97;4.68;;;11.80;90.50;;;;;;4718274;29;20066;-71
2023/06/16 00:49:18;;;;;;;7.28;4.70;;;11.80;90.60;;;;;;4748720;29;20054;-69
2023/06/16 00:51:50;;;;;;;8.30;5.30;;;11.80;90.70;;;;;;4749355;29;20063;-70
2023/06/16 00:54:18;;;;;;;6.97;5.35;;;11.80;90.90;;;;;;4747522;29;20099;-71
2023/06/16 00:56:45;;;;;;;6.03;5.40;;;11.80;91.20;;;;;;4752238;29;20289;-70
2023/06/16 00:59:12;;;;;;;9.80;6.18;;;11.80;91.20;;;;;;4748899;29;20170;-71
2023/06/16 01:01:48;;;;;;;7.57;5.80;;;11.80;91.40;;;;;;4765326;29;20062;-72
2023/06/16 01:04:20;;;;;;;8.45;4.82;;;11.80;91.60;;;;;;4749487;29;20316;-72
2023/06/16 01:07:11;;;;;;;9.48;5.53;;;11.70;91.60;;;;;;4752032;29;20230;-71
2023/06/16 01:10:00;;;;;;;7.10;5.00;;;11.70;91.90;;;;;;4728073;30;20063;-71
2023/06/16 01:12:44;;;;;;;9.25;6.00;;;11.70;92.00;;;;;;4715773;30;20243;-72
2023/06/16 01:15:18;;;;;;;9.98;6.68;;;11.60;92.00;;;;;;4715276;30;20051;-72
2023/06/16 01:17:57;;;;;;;8.00;5.95;;;11.60;92.20;;;;;;4692299;30;21248;-71
2023/06/16 01:20:52;;;;;;;7.90;6.20;;;11.50;92.40;;;;;;4690141;30;20675;-71
2023/06/16 01:23:52;;;;;;;9.20;7.07;;;11.50;92.60;;;;;;4693961;30;20370;-70
2023/06/16 01:26:26;;;;;;;9.45;7.00;;;11.40;92.80;;;;;;4692470;30;20451;-72
2023/06/16 01:29:21;;;;;;;11.38;6.78;;;9.10;92.50;;;;;;4681106;30;20091;-71
2023/06/16 01:31:54;;;;;;;8.88;6.50;;;11.40;93.60;;;;;;4647878;30;20061;-72
2023/06/16 01:34:43;;;;;;;9.93;6.88;;;11.30;93.50;;;;;;4647754;30;20235;-69
2023/06/16 01:37:14;;;;;;;9.40;5.82;;;11.30;93.90;;;;;;4631043;30;20061;-71
2023/06/16 01:39:49;;;;;;;8.48;7.40;;;11.30;94.00;;;;;;4641688;30;20294;-71
2023/06/16 01:42:18;;;;;;;7.07;6.13;;;11.30;94.10;;;;;;4628761;30;20068;-70
2023/06/16 01:44:46;;;;;;;12.60;8.05;;;11.30;94.40;;;;;;4642526;30;20421;-70
2023/06/16 01:47:12;;;;;;;10.55;8.07;;;11.20;94.60;;;;;;4614968;30;20045;-71
2023/06/16 01:49:59;;;;;;;11.13;8.55;;;11.20;94.70;;;;;;4616814;30;20128;-71
2023/06/16 01:52:25;;;;;;;9.25;8.30;;;11.20;95.10;;;;;;4592630;30;20073;-71
2023/06/16 01:54:52;;;;;;;11.15;8.32;;;11.10;95.00;;;;;;4629464;30;20448;-71
2023/06/16 01:57:21;;;;;;;9.77;8.77;;;10.40;95.00;;;;;;4654450;30;20126;-71
2023/06/16 02:00:26;;;;;;;12.75;9.00;;;11.10;95.40;;;;;;4632056;30;20100;-71
2023/06/16 02:03:36;;;;;;;12.68;8.55;;;11.10;95.70;;;;;;4615026;30;20062;-71
2023/06/16 02:06:28;;;;;;;13.52;8.75;;;11.10;95.90;;;;;;4610334;30;21448;-67
2023/06/16 02:09:04;;;;;;;10.63;8.77;;;11.10;95.80;;;;;;4605707;30;20510;-71
2023/06/16 02:11:31;;;;;;;9.80;7.97;;;11.00;95.80;;;;;;4610915;30;20537;-70
2023/06/16 02:13:57;;;;;;;6.88;5.93;;;11.00;95.80;;;;;;4611069;30;20784;-70
2023/06/16 02:16:37;;;;;;;7.53;5.68;;;11.00;95.90;;;;;;4609611;30;20062;-71
2023/06/16 02:19:05;;;;;;;6.82;5.43;;;11.00;96.10;;;;;;4594152;30;20334;-71
2023/06/16 02:22:09;;;;;;;7.22;6.45;;;10.90;96.20;;;;;;4640363;30;20205;-70
2023/06/16 02:24:37;;;;;;;8.65;7.22;;;10.90;96.30;;;;;;4627123;30;20073;-71
2023/06/16 02:27:05;;;;;;;7.72;6.78;;;10.90;96.40;;;;;;4624661;30;20622;-71
2023/06/16 02:29:32;;;;;;;10.95;8.20;;;10.80;96.40;;;;;;4624334;30;20085;-67
2023/06/16 02:32:11;;;;;;;12.75;8.50;;;10.70;96.50;;;;;;4640292;30;20203;-69
2023/06/16 02:34:38;;;;;;;11.13;9.52;;;10.70;96.60;;;;;;4624851;30;20097;-67
2023/06/16 02:37:05;;;;;;;6.90;4.68;;;10.70;96.60;;;;;;4637104;30;20053;-70
2023/06/16 02:39:33;;;;;;;5.00;4.38;;;10.70;96.70;;;;;;4676547;30;20102;-69
2023/06/16 02:42:03;;;;;;;8.18;6.78;;;10.70;96.70;;;;;;4723802;29;20055;-71
2023/06/16 02:44:35;;;;;;;11.98;9.48;;;10.70;96.60;;;;;;4782476;29;20113;-70
2023/06/16 02:47:01;;;;;;;10.40;9.18;;;10.70;96.60;;;;;;4766139;29;20817;-70
2023/06/16 02:49:30;;;;;;;9.70;8.68;;;10.70;96.70;;;;;;4766511;29;20050;-70
2023/06/16 02:51:57;;;;;;;12.00;9.57;;;10.70;96.80;;;;;;4766939;29;20054;-71
2023/06/16 02:54:23;;;;;;;11.23;9.73;;;10.60;96.90;;;;;;4765553;29;20133;-71
2023/06/16 02:56:58;;;;;;;12.65;9.23;;;10.00;96.70;;;;;;4770433;29;20097;-70
2023/06/16 02:59:24;;;;;;;12.88;9.88;;;10.60;96.90;;;;;;4774139;29;20320;-68
2023/06/16 03:01:52;;;;;;;11.45;9.57;;;10.60;96.90;;;;;;4773652;29;20145;-70
2023/06/16 03:04:18;;;;;;;10.25;8.57;;;10.60;97.00;;;;;;4771990;29;20145;-71
2023/06/16 03:07:06;;;;;;;7.78;6.72;;;10.60;97.00;;;;;;4786497;29;20154;-70
2023/06/16 03:09:39;;;;;;;6.03;5.45;;;10.60;97.00;;;;;;4773283;29;20470;-68
2023/06/16 03:12:11;;;;;;;6.38;5.72;;;10.60;97.10;;;;;;4785478;29;20054;-70
2023/06/16 03:14:41;;;;;;;7.45;4.97;;;10.60;97.10;;;;;;4760901;29;20053;-70
2023/06/16 03:17:32;;;;;;;6.75;6.13;;;9.90;97.00;;;;;;4750712;29;20050;-71
2023/06/16 03:20:11;;;;;;;7.88;7.10;;;10.50;97.20;;;;;;4716557;29;20479;-70
2023/06/16 03:22:50;;;;;;;8.65;7.75;;;12.80;97.90;;;;;;4733201;29;20062;-70
2023/06/16 03:25:16;;;;;;;9.30;8.18;;;10.50;97.50;;;;;;4712701;29;20051;-71
2023/06/16 03:27:42;;;;;;;11.10;7.63;;;10.40;97.60;;;;;;4713282;29;20844;-71
2023/06/16 03:30:13;;;;;;;9.82;8.70;;;10.50;97.70;;;;;;4709494;29;21065;-70
2023/06/16 03:32:45;;;;;;;7.97;7.22;;;10.60;97.90;;;;;;4724701;29;20143;-71
2023/06/16 03:35:12;;;;;;;6.35;5.75;;;10.60;98.00;;;;;;4731726;29;20055;-71
2023/06/16 03:37:45;;;;;;;6.07;5.43;;;10.70;98.20;;;;;;4725634;29;20237;-71
2023/06/16 03:40:11;;;;;;;6.85;6.15;;;10.80;98.30;;;;;;4721485;29;20062;-69
2023/06/16 03:42:37;;;;;;;7.82;7.03;;;10.80;98.20;;;;;;4714200;29;20211;-71
2023/06/16 03:45:03;;;;;;;8.40;7.60;;;11.00;98.30;;;;;;4710021;29;20263;-71
2023/06/16 03:47:30;;;;;;;8.48;7.40;;;11.10;98.40;;;;;;4733487;29;20066;-72
2023/06/16 03:49:58;;;;;;;9.52;8.55;;;11.10;98.50;;;;;;4755737;29;20050;-72
2023/06/16 03:52:26;;;;;;;10.57;9.48;;;11.20;98.80;;;;;;4750787;29;20058;-70
2023/06/16 03:55:00;;;;;;;10.60;9.50;;;11.40;98.80;;;;;;4748761;29;20059;-69
2023/06/16 03:57:52;;;;;;;9.13;8.23;;;11.50;98.90;;;;;;4686860;30;20087;-70
2023/06/16 04:00:18;;;;;;;10.93;9.82;;;11.60;98.80;;;;;;4679511;30;20969;-71
2023/06/16 04:02:46;;;;;;;14.40;11.35;;;11.80;98.70;;;;;;4699430;30;20613;-71
2023/06/16 04:05:19;;;;;;;12.73;11.50;;;11.90;98.70;;;;;;4677056;30;20181;-71
2023/06/16 04:07:57;;;;;;;12.82;11.45;;;13.40;99.10;;;;;;4675985;30;20201;-71
2023/06/16 04:10:29;;;;;;;14.27;12.38;;;12.10;98.60;;;;;;4668320;30;21150;-71
2023/06/16 04:12:58;;;;;;;13.52;12.13;;;12.10;98.60;;;;;;4681899;30;20056;-70
2023/06/16 04:15:26;;;;;;;17.08;13.52;;;12.20;98.60;;;;;;4678681;30;20480;-70
2023/06/16 04:18:01;;;;;;;13.80;11.65;;;12.30;98.90;;;;;;4679254;30;20060;-71
2023/06/16 04:20:31;;;;;;;14.73;12.65;;;12.50;99.20;;;;;;4678839;30;20261;-69
2023/06/16 04:23:15;;;;;;;13.73;11.93;;;12.80;99.50;;;;;;4701158;30;20052;-69
2023/06/16 04:25:44;;;;;;;14.90;12.18;;;13.20;99.60;;;;;;4697017;30;20060;-71
2023/06/16 04:28:13;;;;;;;18.85;12.88;;;13.60;99.70;;;;;;4680926;30;20760;-70
2023/06/16 04:30:42;;;;;;;17.25;12.50;;;14.00;99.80;;;;;;4681598;30;20158;-70
2023/06/16 04:33:30;;;;;;;12.57;11.05;;;14.40;99.50;;;;;;4711586;30;20064;-70
2023/06/16 04:35:56;;;;;;;14.82;11.57;;;14.50;98.80;;;;;;4690176;30;20060;-68
2023/06/16 04:38:23;;;;;;;11.88;9.77;;;15.10;98.80;;;;;;4709394;30;20064;-72
2023/06/16 04:40:50;;;;;;;11.27;10.07;;;13.40;97.80;;;;;;4710938;30;20170;-71
2023/06/16 04:43:23;;;;;;;11.63;9.85;;;15.80;97.80;;;;;;4721131;29;20071;-71
2023/06/16 04:45:50;;;;;;;11.38;10.25;;;16.10;97.10;;;;;;4730046;29;20047;-71
2023/06/16 04:48:37;;;;;;;11.43;10.23;;;16.30;96.60;;;;;;4729868;29;20205;-71
2023/06/16 04:51:30;;;;;;;13.20;11.52;;;16.30;96.00;;;;;;4693813;30;20986;-71
2023/06/16 04:54:18;;;;;;;12.00;10.77;;;16.40;95.20;;;;;;4674538;30;20064;-70
2023/06/16 04:56:50;;;;;;;14.43;12.93;;;16.30;95.30;;;;;;4649516;30;20274;-70
2023/06/16 04:59:17;;;;;;;13.25;11.05;;;16.40;95.20;;;;;;4662986;30;20068;-70
2023/06/16 05:01:46;;;;;;;16.52;12.30;;;16.50;95.20;;;;;;4649792;30;20734;-71
2023/06/16 05:04:13;;;;;;;15.93;12.43;;;16.60;95.10;;;;;;4666749;30;20057;-68
2023/06/16 05:06:39;;;;;;;15.73;12.73;;;16.70;95.00;;;;;;4661872;30;20077;-71
2023/06/16 05:09:06;;;;;;;14.80;12.25;;;16.90;95.00;;;;;;4686527;30;21268;-72
2023/06/16 05:11:33;;;;;;;15.40;12.60;;;17.20;95.00;;;;;;4698527;30;20056;-71
2023/06/16 05:14:01;;;;;;;12.95;11.65;;;17.60;94.70;;;;;;4683504;30;20060;-72
2023/06/16 05:16:28;;;;;;;17.55;11.77;;;17.90;94.20;;;;;;4699877;30;20064;-70
2023/06/16 05:18:57;;;;;;;15.55;12.48;;;18.10;93.70;;;;;;4682433;30;20558;-73
2023/06/16 05:21:42;;;;;;;15.05;13.55;;;18.20;93.30;;;;;;4710805;30;20056;-71
2023/06/16 05:24:22;;;;;;;15.02;12.48;;;18.20;93.00;;;;;;4704989;30;20067;-72
2023/06/16 05:27:07;;;;;;;16.83;15.13;;;18.30;92.90;;;;;;4731628;30;20062;-71
2023/06/16 05:30:09;;;;;;;18.05;13.55;;;18.40;92.70;;;;;;4756429;29;20062;-71
2023/06/16 05:32:46;;;;;;;16.52;14.82;;;18.40;92.60;;;;;;4689168;30;20518;-72
2023/06/16 05:35:16;;;;;;;16.38;14.68;;;18.50;92.50;;;;;;4693682;30;20056;-73
2023/06/16 05:37:46;;;;;;;16.95;14.73;;;18.50;92.50;;;;;;4705217;30;21419;-74
2023/06/16 05:40:13;;;;;;;20.60;16.52;;;18.50;92.60;;;;;;4683814;30;20598;-75
2023/06/16 05:42:41;;;;;;;19.20;15.48;;;18.60;92.40;;;;;;4684712;30;20091;-73
2023/06/16 05:45:11;;;;;;;18.38;14.20;;;17.80;92.20;;;;;;4683004;30;20075;-72
2023/06/16 05:47:39;;;;;;;15.70;14.07;;;19.40;92.20;;;;;;4684382;30;20068;-73
2023/06/16 05:50:21;;;;;;;14.80;13.18;;;19.20;91.40;;;;;;4688342;30;20347;-74
2023/06/16 05:52:50;;;;;;;19.10;14.05;;;21.20;90.70;;;;;;4683979;30;20064;-72
2023/06/16 05:55:50;;;;;;;13.52;12.23;;;22.10;88.30;;;;;;4696048;30;20108;-72
2023/06/16 05:58:21;;;;;;;14.38;12.88;;;23.10;85.20;;;;;;4682704;30;20243;-75
2023/06/16 06:01:00;;;;;;;10.93;9.82;;;24.10;81.70;;;;;;4696734;29;20056;-75
2023/06/16 06:04:03;;;;;;;11.30;10.20;;;25.00;78.80;;;;;;4787301;29;20199;-73
2023/06/16 06:06:35;;;;;;;12.05;10.35;;;27.20;75.20;;;;;;4775614;29;20146;-78
2023/06/16 06:09:22;;;;;;;11.98;10.75;;;27.10;71.20;;;;;;4799303;29;20125;-72
2023/06/16 06:11:51;;;;;;;9.88;7.82;;;28.00;68.00;;;;;;4774676;29;20061;-72
2023/06/16 06:14:18;;;;;;;10.18;9.10;;;28.70;66.40;;;;;;4772380;29;20052;-73
2023/06/16 06:16:44;;;;;;;12.68;9.80;;;29.30;64.20;;;;;;4752222;29;20057;-73
2023/06/16 06:19:10;;;;;;;9.98;8.93;;;29.90;62.20;;;;;;4769714;29;20060;-72
2023/06/16 06:21:39;;;;;;;10.73;9.13;;;30.40;60.50;;;;;;4768479;29;20792;-74
2023/06/16 06:24:06;;;;;;;9.98;7.43;;;30.80;58.60;;;;;;4773026;29;20046;-75
2023/06/16 06:26:38;;;;;;;14.02;9.35;;;31.60;58.10;;;;;;4769934;29;20547;-76
2023/06/16 06:29:17;;;;;;;11.65;9.27;;;32.00;56.80;;;;;;4765703;29;20488;-74
2023/06/16 06:31:44;;;;;;;9.40;8.45;;;32.30;54.70;;;;;;4770704;29;20054;-75
2023/06/16 06:34:13;;;;;;;9.52;8.52;;;32.90;54.00;;;;;;4771660;29;20058;-81
2023/06/16 06:36:41;;;;;;;6.30;5.55;;;33.30;52.90;;;;;;4772437;29;20414;-78
2023/06/16 06:39:08;;;;;;;7.35;5.53;;;33.90;52.20;;;;;;4773397;29;20152;-77
2023/06/16 06:41:34;;;;;;;7.32;6.63;;;34.40;51.30;;;;;;4766718;29;20681;-77
2023/06/16 06:44:03;;;;;;;8.02;5.90;;;34.90;50.10;;;;;;4759652;29;20651;-76
2023/06/16 06:46:29;;;;;;;7.22;6.53;;;37.30;50.90;;;;;;4747137;29;20535;-75
2023/06/16 06:48:58;;;;;;;8.40;6.35;;;35.70;48.70;;;;;;4769045;29;20103;-76
2023/06/16 06:51:24;;;;;;;8.82;7.70;;;35.80;48.00;;;;;;4732141;29;20058;-74
2023/06/16 06:54:41;;;;;;;7.13;6.25;;;36.00;47.10;;;;;;4755038;29;20058;-75
2023/06/16 06:58:16;;;;;;;9.18;6.60;;;36.50;46.70;;;;;;4742479;29;20072;-71
2023/06/16 07:05:47;;;;;;;7.50;6.15;;;37.40;45.30;;;;;;4626026;30;20570;-72
2023/06/16 07:08:43;;;;;;;6.18;4.43;;;37.90;44.40;;;;;;4607533;30;20057;-78
2023/06/16 07:12:04;;;;;;;5.73;4.60;;;38.20;43.90;;;;;;4613012;30;20060;-76
2023/06/16 07:15:06;;;;;;;9.15;4.72;;;38.50;42.50;;;;;;4650914;30;20581;-78
2023/06/16 07:17:41;;;;;;;3.20;2.90;;;38.60;41.60;;;;;;4623561;30;20049;-76
2023/06/16 07:20:10;;;;;;;8.13;5.75;;;38.50;40.70;;;;;;4594267;30;20251;-74
2023/06/16 07:22:57;;;;;;;6.63;3.78;;;40.30;41.70;;;;;;4628951;30;20070;-78
2023/06/16 07:25:28;;;;;;;6.22;2.42;;;37.80;39.00;;;;;;4617732;30;20103;-76
2023/06/16 07:28:07;;;;;;;5.65;4.30;;;38.00;39.50;;;;;;4632261;30;20069;-78
2023/06/16 07:30:38;;;;;;;3.50;3.20;;;37.90;40.40;;;;;;4752706;29;20061;-74
2023/06/16 07:33:31;;;;;;;5.57;4.25;;;38.10;40.00;;;;;;4769613;29;20065;-75
2023/06/16 07:36:09;;;;;;;6.00;3.40;;;38.10;40.00;;;;;;4766796;29;20057;-80
2023/06/16 07:38:38;;;;;;;6.13;3.07;;;38.20;40.50;;;;;;4761857;29;20510;-71
2023/06/16 07:41:13;;;;;;;5.30;2.72;;;38.70;40.30;;;;;;4773498;29;20082;-75
2023/06/16 08:09:56;;;;;;;6.80;4.32;;;43.00;37.20;;;;;;4782020;29;20515;-79
2023/06/16 08:13:56;;;;;;;5.78;3.42;;;43.60;36.70;;;;;;4725936;29;20274;-77
2023/06/16 08:17:51;;;;;;;7.03;2.95;;;44.10;36.70;;;;;;4716638;30;20063;-78
2023/06/16 08:21:51;;;;;;;3.85;2.92;;;44.90;36.60;;;;;;4664427;30;20059;-79
2023/06/16 08:26:04;;;;;;;4.75;2.50;;;44.90;36.00;;;;;;4688819;30;20067;-78
2023/06/16 08:30:00;;;;;;;6.78;3.65;;;45.10;35.10;;;;;;4699421;30;20170;-74
2023/06/16 08:33:54;;;;;;;5.32;2.67;;;45.20;34.80;;;;;;4723650;30;20768;-76
2023/06/16 08:42:05;;;;;;;5.25;3.38;;;45.60;34.20;;;;;;4662653;30;20090;-80
2023/06/16 08:49:46;;;;;;;4.63;2.60;;;46.00;33.90;;;;;;4638220;30;20323;-74
2023/06/16 09:11:07;;;;;;;6.80;2.42;;;45.60;31.80;;;;;;4706213;30;20316;-77
2023/06/16 09:14:50;;;;;;;4.07;2.30;;;46.60;33.90;;;;;;4690358;30;20139;-74
2023/06/16 09:18:44;;;;;;;2.50;2.05;;;46.70;33.30;;;;;;4668590;30;20299;-77
2023/06/16 09:21:59;;;;;;;5.45;2.47;;;45.10;31.20;;;;;;4625106;30;20049;-79
2023/06/16 09:24:35;;;;;;;3.40;1.90;;;46.80;31.80;;;;;;4620811;30;20075;-80
2023/06/16 09:27:14;;;;;;;3.65;1.75;;;45.80;30.60;;;;;;4626941;30;20268;-76
2023/06/16 09:29:52;;;;;;;7.10;2.05;;;46.60;32.30;;;;;;4616856;30;20147;-74
2023/06/16 09:32:44;;;;;;;5.13;1.75;;;46.50;31.30;;;;;;4649424;30;20230;-81
2023/06/16 09:35:24;;;;;;;3.90;2.35;;;46.60;32.00;;;;;;4625435;30;20053;-76
2023/06/16 09:38:40;;;;;;;4.72;1.77;;;46.40;31.70;;;;;;4665041;29;20172;-74
2023/06/16 09:41:18;;;;;;;5.22;1.77;;;46.50;31.50;;;;;;4756632;29;20082;-74
2023/06/16 09:43:59;;;;;;;2.78;1.60;;;45.00;30.10;;;;;;4766808;29;20133;-74
2023/06/16 09:46:28;;;;;;;3.80;1.77;;;46.70;30.70;;;;;;4779861;29;20050;-75
2023/06/16 09:48:55;;;;;;;4.53;1.75;;;46.70;30.60;;;;;;4777163;29;20058;-72
2023/06/16 09:51:23;;;;;;;20.15;2.38;;;46.60;29.90;;;;;;4769152;29;20050;-75
2023/06/16 09:54:10;;;;;;;5.53;1.33;;;46.60;30.00;;;;;;4769564;29;20084;-76
2023/06/16 09:56:55;;;;;;;5.40;1.15;;;46.40;30.20;;;;;;4768174;29;20050;-73
2023/06/16 09:59:41;;;;;;;5.50;1.10;;;46.10;30.00;;;;;;4764558;29;20290;-72
2023/06/16 10:02:12;;;;;;;1.98;1.35;;;45.90;29.50;;;;;;4765480;29;20050;-74
2023/06/16 10:04:41;;;;;;;2.00;1.15;;;45.70;29.50;;;;;;4753125;29;20097;-77
2023/06/16 10:07:16;;;;;;;7.20;1.33;;;45.50;29.70;;;;;;4754512;29;20685;-77
2023/06/16 10:09:51;;;;;;;4.13;1.40;;;45.20;29.30;;;;;;4758750;29;20303;-72
2023/06/16 10:12:18;;;;;;;2.33;1.30;;;44.50;30.00;;;;;;4725272;29;20536;-76
2023/06/16 10:15:07;;;;;;;6.55;1.70;;;44.70;30.50;;;;;;4755237;29;20146;-74
2023/06/16 10:17:38;;;;;;;3.95;1.38;;;44.30;29.90;;;;;;4682470;30;20064;-79
2023/06/16 10:20:16;;;;;;;5.13;2.28;;;44.10;30.60;;;;;;4665530;30;20084;-75
2023/06/16 10:23:48;;;;;;;3.03;1.00;;;43.80;30.70;;;;;;4662530;30;20390;-74
2023/06/16 10:26:19;;;;;;;2.38;1.00;;;43.50;30.50;;;;;;4666767;30;20183;-72
2023/06/16 10:29:27;;;;;;;4.75;1.35;;;43.30;30.80;;;;;;4684485;30;20070;-76
2023/06/16 10:32:07;;;;;;;3.42;1.08;;;43.00;31.60;;;;;;4654075;30;20156;-84
2023/06/16 10:35:00;;;;;;;2.95;1.20;;;42.90;31.20;;;;;;4648820;30;20064;-76
2023/06/16 10:44:43;;;;;;;4.97;1.35;;;43.30;31.80;;;;;;4594238;30;20396;-72
2023/06/16 10:47:21;;;;;;;2.80;1.17;;;41.50;30.80;;;;;;4597437;30;20094;-78
2023/06/16 10:50:18;;;;;;;2.88;1.10;;;41.20;31.30;;;;;;4602542;30;20062;-74
2023/06/16 10:52:51;;;;;;;2.92;1.40;;;40.20;31.80;;;;;;4631369;30;20054;-74
2023/06/16 10:55:35;;;;;;;2.78;1.30;;;38.60;32.40;;;;;;4617592;30;20108;-72
2023/06/16 10:58:23;;;;;;;4.03;1.38;;;37.30;33.00;;;;;;4610524;30;20615;-76
2023/06/16 11:01:29;;;;;;;3.53;1.67;;;36.00;34.00;;;;;;4618614;30;20320;-74
2023/06/16 11:04:03;;;;;;;5.53;2.10;;;34.80;36.00;;;;;;4625587;30;20127;-73
2023/06/16 11:07:08;;;;;;;4.80;1.50;;;33.90;37.10;;;;;;4614515;30;20141;-75
2023/06/16 11:10:24;;;;;;;4.53;1.55;;;33.30;37.10;;;;;;4649509;30;20312;-73
2023/06/16 11:12:50;;;;;;;4.20;1.35;;;31.40;38.00;;;;;;4615374;30;20058;-73
2023/06/16 11:15:39;;;;;;;4.47;1.40;;;32.00;39.20;;;;;;4617623;30;20186;-79
2023/06/16 11:18:27;;;;;;;6.32;1.20;;;30.00;38.70;;;;;;4582698;30;20070;-78
2023/06/16 11:21:15;;;;;;;6.25;1.88;;;31.20;40.30;;;;;;4576551;30;20148;-74
2023/06/16 11:23:43;;;;;;;6.28;1.60;;;30.90;40.60;;;;;;4590526;30;20070;-75
2023/06/16 11:26:26;;;;;;;6.65;1.67;;;32.40;42.70;;;;;;4584486;30;21150;-82
2023/06/16 11:29:18;;;;;;;3.65;1.50;;;30.40;41.50;;;;;;4578977;30;20070;-75
2023/06/16 11:32:19;;;;;;;5.45;1.58;;;31.30;41.80;;;;;;4631290;30;20122;-74
2023/06/16 11:35:09;;;;;;;3.47;1.17;;;29.90;42.20;;;;;;4616961;30;20518;-79
2023/06/16 11:37:59;;;;;;;2.85;0.93;;;29.80;42.90;;;;;;4643942;30;20143;-74
2023/06/16 11:41:30;;;;;;;;;;;29.60;42.80;;;;;;4646175;30;20972;-75
2023/06/16 11:44:31;;;;;;;6.28;1.33;;;27.40;41.70;;;;;;4645548;30;19957;-77
2023/06/16 11:47:02;;;;;;;3.22;1.13;;;29.40;42.80;;;;;;4636285;30;20823;-75
2023/06/16 11:49:29;;;;;;;6.45;1.50;;;29.30;43.00;;;;;;4642071;30;20887;-75
2023/06/16 11:52:09;;;;;;;5.90;1.10;;;29.20;42.60;;;;;;4655971;30;20818;-77
2023/06/16 11:54:57;;;;;;;4.70;1.52;;;29.20;43.20;;;;;;4650031;30;20565;-76
2023/06/16 11:57:23;;;;;;;5.95;1.48;;;29.10;43.70;;;;;;4662922;30;20092;-74
2023/06/16 12:00:20;;;;;;;3.65;1.60;;;29.00;44.60;;;;;;4656779;29;20873;-76
2023/06/16 12:03:27;;;;;;;2.10;1.10;;;28.90;43.60;;;;;;4706175;30;20082;-78
2023/06/16 12:05:57;;;;;;;3.00;1.10;;;28.80;43.70;;;;;;4677891;30;21354;-77
2023/06/16 12:08:44;;;;;;;3.22;1.35;;;28.70;43.10;;;;;;4692366;30;20117;-79
2023/06/16 12:11:44;;;;;;;4.22;1.23;;;28.60;43.90;;;;;;4687179;30;20057;-75
2023/06/16 12:14:20;;;;;;;4.60;1.50;;;28.50;43.90;;;;;;4652964;30;20068;-76
2023/06/16 12:17:05;;;;;;;2.08;1.02;;;28.40;43.80;;;;;;4667384;30;20076;-80
2023/06/16 12:19:46;;;;;;;3.40;1.05;;;27.90;43.20;;;;;;4636952;30;20391;-77
2023/06/16 12:22:12;;;;;;;2.33;1.13;;;29.10;43.70;;;;;;4651378;30;20060;-80
2023/06/16 12:24:42;;;;;;;5.25;1.67;;;28.20;43.70;;;;;;4652978;30;20057;-75
2023/06/16 12:27:08;;;;;;;3.17;1.77;;;28.20;44.60;;;;;;4652540;30;20059;-73
2023/06/16 12:29:44;;;;;;;3.83;1.23;;;26.30;42.70;;;;;;4667648;30;20075;-73
2023/06/16 12:32:11;;;;;;;1.90;1.13;;;28.10;44.20;;;;;;4637167;30;20068;-74
2023/06/16 12:35:31;;;;;;;5.63;1.67;;;27.90;43.40;;;;;;4762105;29;20050;-75
2023/06/16 12:38:53;;;;;;;3.90;1.30;;;27.80;43.50;;;;;;4719246;29;20322;-79
2023/06/16 12:42:22;;;;;;;5.07;1.48;;;27.60;44.50;;;;;;4642734;30;20095;-80
2023/06/16 12:44:50;;;;;;;4.35;1.40;;;27.50;44.60;;;;;;4593273;30;20097;-80
2023/06/16 12:47:26;;;;;;;4.50;1.10;;;27.40;44.40;;;;;;4588887;30;20054;-76
2023/06/16 12:49:57;;;;;;;4.45;1.33;;;27.30;44.30;;;;;;4596294;30;20094;-76
2023/06/16 12:52:34;;;;;;;;;;;27.30;44.90;;;;;;4605710;30;20171;-74
2023/06/16 12:55:00;;;;;;;2.22;1.05;;;27.20;45.30;;;;;;4613881;30;19982;-75
2023/06/16 12:57:32;;;;;;;4.82;1.35;;;27.20;44.40;;;;;;4615731;30;20137;-75
2023/06/16 13:00:00;;;;;;;3.00;1.55;;;27.10;44.10;;;;;;4603281;30;20066;-76
2023/06/16 13:02:32;;;;;;;3.25;1.20;;;28.70;44.60;;;;;;4602754;30;20158;-75
2023/06/16 13:05:07;;;;;;;3.45;1.15;;;27.00;43.80;;;;;;4587984;30;20178;-72
2023/06/16 13:07:43;;;;;;;6.55;1.65;;;27.10;45.40;;;;;;4587088;30;20902;-73
2023/06/16 13:10:10;;;;;;;9.57;1.65;;;27.10;46.00;;;;;;4587757;30;20161;-73
2023/06/16 13:12:45;;;;;;;9.82;1.70;;;27.00;45.70;;;;;;4612333;30;20751;-73
2023/06/16 13:15:11;;;;;;;2.78;1.52;;;27.00;45.20;;;;;;4670546;30;20693;-75
2023/06/16 13:18:42;;;;;;;4.85;1.75;;;27.00;45.20;;;;;;4745720;29;20141;-76
2023/06/16 13:21:28;;;;;;;5.00;1.65;;;26.90;45.20;;;;;;4760167;29;20922;-74
2023/06/16 13:24:05;;;;;;;7.30;1.60;;;26.80;44.70;;;;;;4751701;29;20395;-71
2023/06/16 13:26:49;;;;;;;7.10;1.45;;;26.80;45.00;;;;;;4742663;29;20129;-75
2023/06/16 13:29:32;;;;;;;4.82;1.38;;;26.80;45.30;;;;;;4761282;29;20101;-76
2023/06/16 13:32:18;;;;;;;2.53;1.00;;;26.70;46.10;;;;;;4752599;29;20063;-76
2023/06/16 13:34:49;;;;;;;5.45;1.67;;;26.70;46.00;;;;;;4727668;29;20046;-78
2023/06/16 13:37:23;;;;;;;5.60;1.38;;;26.70;45.90;;;;;;4745166;29;20770;-75
2023/06/16 13:39:53;;;;;;;4.43;1.45;;;26.70;46.00;;;;;;4735271;29;20054;-74
2023/06/16 13:42:42;;;;;;;5.57;1.48;;;26.70;46.50;;;;;;4735227;29;20394;-73
2023/06/16 13:45:49;;;;;;;3.63;1.33;;;26.60;46.00;;;;;;4752059;29;20050;-73
2023/06/16 13:48:19;;;;;;;6.22;1.25;;;26.70;46.30;;;;;;4750262;29;20070;-78
2023/06/16 13:50:59;;;;;;;2.38;1.20;;;26.60;45.30;;;;;;4753669;29;20305;-77
2023/06/16 13:53:50;;;;;;;4.75;1.25;;;26.60;46.40;;;;;;4732394;30;20051;-74
2023/06/16 13:57:03;;;;;;;3.28;1.27;;;26.50;45.40;;;;;;4748737;30;20071;-78
2023/06/16 13:59:40;;;;;;;2.30;1.48;;;28.50;47.40;;;;;;4697830;30;20071;-78
2023/06/16 14:02:09;;;;;;;3.08;1.20;;;26.30;45.10;;;;;;4697033;30;20080;-75
2023/06/16 14:04:41;;;;;;;2.80;1.20;;;26.30;45.50;;;;;;4693509;30;20133;-75
2023/06/16 14:07:09;;;;;;;3.47;1.05;;;27.90;46.00;;;;;;4689347;30;20866;-75
2023/06/16 14:09:40;;;;;;;4.95;1.65;;;26.30;45.00;;;;;;4675037;30;20049;-73
2023/06/16 14:12:24;;;;;;;3.83;1.07;;;26.20;45.10;;;;;;4638957;30;20494;-77
2023/06/16 14:14:59;;;;;;;3.72;1.40;;;26.10;44.70;;;;;;4764295;29;21029;-73
2023/06/16 14:18:13;;;;;;;3.05;1.45;;;26.10;45.50;;;;;;4806262;29;20173;-75
2023/06/16 14:20:44;;;;;;;4.85;1.40;;;26.00;45.60;;;;;;4790530;29;20073;-76
2023/06/16 14:23:51;;;;;;;3.00;1.20;;;26.10;46.00;;;;;;4768738;29;20135;-73
2023/06/16 14:26:46;;;;;;;3.78;1.10;;;26.00;45.10;;;;;;4782823;29;20078;-74
2023/06/16 14:29:23;;;;;;;3.97;1.13;;;25.90;44.20;;;;;;4783543;29;20426;-76
2023/06/16 14:32:01;;;;;;;7.88;1.50;;;25.90;45.20;;;;;;4769137;29;20054;-75
2023/06/16 14:34:51;;;;;;;3.05;1.48;;;25.80;45.20;;;;;;4749494;29;20067;-75
2023/06/16 14:37:53;;;;;;;5.45;1.30;;;25.80;45.60;;;;;;4715212;30;20457;-75
2023/06/16 14:40:31;;;;;;;3.70;1.33;;;25.80;45.60;;;;;;4705503;30;20380;-75
2023/06/16 14:43:06;;;;;;;6.15;1.40;;;25.80;45.10;;;;;;4700799;30;20200;-77
2023/06/16 14:46:04;;;;;;;10.05;1.75;;;25.70;45.00;;;;;;4692227;30;20122;-75
2023/06/16 14:48:47;;;;;;;2.55;1.20;;;25.70;44.60;;;;;;4679928;30;20057;-73
2023/06/16 14:51:21;;;;;;;4.38;1.50;;;25.40;44.70;;;;;;4658382;30;20065;-77
2023/06/16 14:53:56;;;;;;;5.95;1.40;;;25.60;45.10;;;;;;4649984;30;20281;-76
2023/06/16 14:56:35;;;;;;;2.88;1.45;;;25.50;45.60;;;;;;4663254;30;20132;-78
2023/06/16 14:59:19;;;;;;;3.63;1.35;;;27.00;46.20;;;;;;4636345;30;20092;-77